aviador You're here:

SLVR Decoded Metar

SANTA CRUZ in BOLIVIA
Report Time2017-10-22 16:00:00
UTC Time2017-10-22 17:12:38
Flight Rules Old
Wind190° at 22 Gusting to 32 kt
W.Decomp.*RWY 16: 17.1 kt HW 13.8 kt RCW
W.Rank190° ranks 10
Current wind is above 190° avg. (9.0)
Visibility9999 m
Phenomena:N/A
Clouds:Scattered 023 Hf
Broken 070 Hf
Broken 200 Hf
Expected CloudBase > 2,800 ft AGL from Temp-Dew spread
Ceiling7,000 ft
Temp24°C (ISA +11)
Dew Point17°C (65% RH)
AAT18.5°C
QNH1018 hPa
Density Alt2,641 ft
Elevation1,224 ft
Report Wrong Elevation
Raw Report
METAR SLVR 221600Z 19022G32KT 9999 SCT023 BKN070 BKN200 24/17 Q1018=

Extra information for SLVR:More info

Metar Taf Metar & Taf Last 4 Metars F.Rules Stats Wind Profile Meteogram Temp Stats Airport Information Weather charts Add Link Nearby VenuesMetar ALERT Operation Metar Decoded Social comments